Terminal Aerodrome Forecast
Issued by NWS

Current Version | Previous Version | Graphics & Text | Print | Product List | Glossary On
Versions: 1 2 3 4 5 6 7 8 9 10 11 12 13 14 15 16 17
000
FTUS41 KPBZ 232300
TAFHLG
TAF
KHLG 232320Z 2400/2424 10006KT P6SM OVC020
     FM240500 12008KT 3SM -RA OVC008
     FM241300 14010KT 6SM -RA OVC008
     FM242300 19012KT P6SM OVC010=

USA.gov is the U.S. government's official web portal to all federal, state and local government web resources and services.